Time;durP1;ratioP1;P1;durP2;ratioP2;P2;SDS_P1;SDS_P2;PMS_P1;PMS_P2;Temp;Humidity;BMP_temperature;BMP_pressure;BME280_temperature;BME280_humidity;BME280_pressure;Samples;Min_cycle;Max_cycle;Signal;HPM_P1;HPM_P2
2022/07/23 00:00:30;;;;;;;5.75;4.68;;;;;;;16.84;64.38;93815.47;5071361;28;20545;-43
2022/07/23 00:02:56;;;;;;;7.05;4.63;;;;;;;16.67;64.36;93816.25;5071288;28;20035;-42
2022/07/23 00:05:21;;;;;;;6.53;4.40;;;;;;;16.57;64.53;93829.44;5071955;28;20037;-42
2022/07/23 00:07:47;;;;;;;7.18;4.60;;;;;;;16.41;64.49;93828.16;5071414;28;20056;-42
2022/07/23 00:10:13;;;;;;;7.15;4.57;;;;;;;16.62;64.24;93820.06;5072181;28;20032;-42
2022/07/23 00:12:39;;;;;;;11.00;5.22;;;;;;;16.65;64.19;93809.81;5071719;28;20033;-42
2022/07/23 00:15:05;;;;;;;7.72;4.75;;;;;;;16.73;64.92;93820.84;5072024;28;20043;-41
2022/07/23 00:17:31;;;;;;;12.70;4.40;;;;;;;16.64;64.84;93816.69;5071765;28;20548;-45
2022/07/23 00:19:57;;;;;;;6.78;4.35;;;;;;;16.60;64.02;93813.59;5071666;28;20024;-43
2022/07/23 00:22:22;;;;;;;5.20;4.65;;;;;;;16.67;63.32;93816.25;5071511;28;20021;-45
2022/07/23 00:24:48;;;;;;;4.90;4.03;;;;;;;16.71;63.23;93812.31;5071898;28;20024;-41
2022/07/23 00:27:13;;;;;;;7.82;4.63;;;;;;;16.58;63.17;93810.66;5071598;28;20508;-40
2022/07/23 00:29:39;;;;;;;6.45;4.43;;;;;;;16.51;63.77;93820.59;5071482;28;20024;-41
2022/07/23 00:32:04;;;;;;;7.78;4.35;;;;;;;16.64;63.35;93811.88;5071358;28;20157;-42
2022/07/23 00:34:30;;;;;;;4.93;4.40;;;;;;;16.51;63.58;93801.09;5071435;28;20048;-42
2022/07/23 00:36:56;;;;;;;9.80;4.57;;;;;;;16.40;64.11;93812.75;5071601;28;20017;-42
2022/07/23 00:39:22;;;;;;;6.72;5.13;;;;;;;16.30;64.53;93811.97;5071443;28;20482;-43
2022/07/23 00:41:48;;;;;;;6.57;4.55;;;;;;;16.22;64.61;93805.72;5056313;28;20017;-41
2022/07/23 00:44:20;;;;;;;7.60;4.85;;;;;;;16.28;65.24;93805.47;5051194;28;20028;-39
2022/07/23 00:46:47;;;;;;;5.68;4.63;;;;;;;16.25;65.05;93801.78;5051371;28;20017;-39
2022/07/23 00:49:13;;;;;;;6.80;4.65;;;;;;;16.08;64.92;93799.06;5059038;28;20135;-39
2022/07/23 00:51:38;;;;;;;9.88;4.80;;;;;;;15.95;65.40;93799.41;5071182;28;20024;-39
2022/07/23 00:54:04;;;;;;;6.85;5.20;;;;;;;15.93;65.49;93794.41;5071270;28;20028;-39
2022/07/23 00:56:30;;;;;;;6.70;4.40;;;;;;;15.99;64.76;93804.53;5053363;28;20411;-39
2022/07/23 00:58:56;;;;;;;5.30;4.10;;;;;;;16.15;64.01;93794.69;5071372;28;20020;-39
2022/07/23 01:01:22;;;;;;;4.78;4.20;;;;;;;15.86;64.03;93775.00;5071166;28;20028;-39
2022/07/23 01:03:48;;;;;;;7.63;4.70;;;;;;;15.84;64.97;93808.25;5070463;28;20036;-39
2022/07/23 01:06:14;;;;;;;7.72;4.50;;;;;;;15.92;64.91;93806.13;5070685;28;20509;-40
2022/07/23 01:08:39;;;;;;;5.25;4.38;;;;;;;15.83;65.58;93798.44;5070992;28;20027;-42
2022/07/23 01:11:05;;;;;;;11.75;5.03;;;;;;;15.67;65.79;93802.72;5070314;28;20020;-42
2022/07/23 01:13:30;;;;;;;5.90;4.63;;;;;;;15.61;66.06;93799.44;5070768;28;20017;-41
2022/07/23 01:15:56;;;;;;;7.50;4.90;;;;;;;15.67;65.93;93795.09;5070826;28;20020;-42
2022/07/23 01:18:21;;;;;;;7.20;5.22;;;;;;;15.77;65.99;93795.91;5070725;28;20032;-41
2022/07/23 01:20:47;;;;;;;6.53;5.15;;;;;;;15.91;65.55;93791.47;5070782;28;20016;-41
2022/07/23 01:23:12;;;;;;;11.35;6.00;;;;;;;15.80;65.90;93789.19;5070314;28;20051;-39
2022/07/23 01:25:47;;;;;;;11.38;10.48;;;;;;;15.77;66.40;93789.59;5070336;28;20039;-39
2022/07/23 01:28:13;;;;;;;8.45;6.43;;;;;;;15.59;66.60;93786.06;5070608;28;20021;-40
2022/07/23 01:30:38;;;;;;;7.95;5.60;;;;;;;15.63;66.20;93789.22;5070281;28;20082;-40
2022/07/23 01:33:03;;;;;;;11.07;4.95;;;;;;;15.80;66.12;93789.19;5070329;28;20085;-40
2022/07/23 01:35:29;;;;;;;15.07;6.30;;;;;;;15.69;66.29;93786.16;5070268;28;20052;-40
2022/07/23 01:37:54;;;;;;;7.05;4.85;;;;;;;15.52;66.49;93786.19;5070435;28;20020;-40
2022/07/23 01:40:20;;;;;;;6.68;4.97;;;;;;;15.39;66.88;93786.47;5070051;28;20021;-41
2022/07/23 01:42:45;;;;;;;7.28;4.55;;;;;;;15.33;66.65;93781.16;5070036;28;20039;-40
2022/07/23 01:45:11;;;;;;;6.18;4.70;;;;;;;15.35;66.65;93780.56;5069985;28;20081;-40
2022/07/23 01:47:36;;;;;;;11.02;4.90;;;;;;;15.24;66.96;93781.81;5067955;28;20028;-40
2022/07/23 01:50:02;;;;;;;6.53;5.55;;;;;;;15.29;66.44;93780.81;5062587;28;20383;-40
2022/07/23 01:52:28;;;;;;;5.13;4.32;;;;;;;15.41;65.64;93779.03;5070397;28;20142;-40
2022/07/23 01:54:53;;;;;;;7.43;4.75;;;;;;;15.26;65.66;93770.09;5070070;28;20429;-40
2022/07/23 01:57:18;;;;;;;8.75;4.28;;;;;;;15.12;66.43;93780.78;5069965;28;20024;-39
2022/07/23 01:59:44;;;;;;;7.32;4.57;;;;;;;15.22;66.31;93786.47;5070263;28;20464;-44
2022/07/23 02:02:09;;;;;;;7.32;5.00;;;;;;;15.20;66.10;93790.53;5068590;28;20475;-40
2022/07/23 02:04:36;;;;;;;6.25;4.60;;;;;;;15.55;65.41;93780.19;5054128;28;20137;-41
2022/07/23 02:07:02;;;;;;;6.18;5.25;;;;;;;15.58;64.91;93783.88;5069866;28;20416;-43
2022/07/23 02:09:28;;;;;;;7.38;5.25;;;;;;;15.37;65.59;93787.06;5070091;28;20024;-42
2022/07/23 02:11:53;;;;;;;9.00;4.72;;;;;;;15.30;65.67;93792.69;5069059;28;20089;-42
2022/07/23 02:14:18;;;;;;;7.72;5.03;;;;;;;15.13;65.73;93787.84;5068386;28;20070;-44
2022/07/23 02:16:44;;;;;;;10.23;5.43;;;;;;;15.01;65.86;93784.03;5060678;28;20559;-43
2022/07/23 02:19:09;;;;;;;6.38;4.40;;;;;;;14.65;66.19;93751.19;5069319;28;20017;-42
2022/07/23 02:21:35;;;;;;;8.73;6.25;;;;;;;14.79;66.48;93788.50;5068689;28;20025;-42
2022/07/23 02:24:01;;;;;;;5.32;4.50;;;;;;;14.83;66.53;93786.06;5053910;28;20055;-44
2022/07/23 02:26:26;;;;;;;4.65;4.20;;;;;;;14.83;66.71;93790.88;5071138;28;20028;-44
2022/07/23 02:28:52;;;;;;;14.25;9.13;;;;;;;14.79;66.69;93791.28;5073750;28;20020;-44
2022/07/23 02:31:18;;;;;;;5.20;4.13;;;;;;;14.81;66.75;93785.88;5074037;28;20459;-44
2022/07/23 02:33:44;;;;;;;6.88;5.03;;;;;;;14.80;67.35;93781.63;5073603;28;20028;-45
2022/07/23 02:36:09;;;;;;;6.20;4.57;;;;;;;14.77;66.96;93791.09;5073490;28;20021;-46
2022/07/23 02:38:34;;;;;;;4.90;4.10;;;;;;;15.03;66.75;93787.72;5073719;28;20025;-44
2022/07/23 02:41:00;;;;;;;5.97;4.10;;;;;;;15.12;65.90;93787.09;5054024;28;20083;-44
2022/07/23 02:43:25;;;;;;;5.97;4.32;;;;;;;15.00;66.03;93793.72;5056992;28;20021;-44
2022/07/23 02:45:51;;;;;;;7.53;4.57;;;;;;;14.84;66.67;93792.34;5072981;28;20497;-46
2022/07/23 02:48:16;;;;;;;5.07;4.18;;;;;;;14.99;66.75;93792.97;5072459;28;20039;-45
2022/07/23 02:50:42;;;;;;;6.07;4.70;;;;;;;14.91;67.02;93803.41;5072198;28;20032;-44
2022/07/23 02:53:07;;;;;;;5.30;4.50;;;;;;;14.74;67.37;93797.06;5072425;28;20020;-45
2022/07/23 02:55:33;;;;;;;8.57;5.32;;;;;;;14.51;67.52;93788.19;5072863;28;20481;-47
2022/07/23 02:57:58;;;;;;;7.13;4.70;;;;;;;14.52;67.87;93798.72;5073547;28;20024;-46
2022/07/23 03:00:24;;;;;;;7.90;4.72;;;;;;;14.51;67.43;93811.13;5073149;28;20029;-45
2022/07/23 03:02:49;;;;;;;6.60;4.65;;;;;;;14.46;67.30;93791.91;5072819;28;20025;-46
2022/07/23 03:05:15;;;;;;;5.65;4.45;;;;;;;14.77;67.17;93810.56;5072741;28;20040;-45
2022/07/23 03:07:40;;;;;;;5.10;4.07;;;;;;;14.61;67.22;93806.44;5072102;28;20024;-46
2022/07/23 03:10:06;;;;;;;7.38;4.65;;;;;;;14.62;67.33;93807.91;5072633;28;20059;-45
2022/07/23 03:12:31;;;;;;;5.80;4.88;;;;;;;14.84;66.94;93815.34;5072864;28;20023;-44
2022/07/23 03:14:57;;;;;;;5.78;4.38;;;;;;;14.96;66.00;93818.41;5072607;28;20027;-44
2022/07/23 03:17:23;;;;;;;6.53;4.32;;;;;;;14.99;65.12;93820.03;5072517;28;20055;-45
2022/07/23 03:19:49;;;;;;;5.30;3.97;;;;;;;14.98;65.77;93821.34;5072414;28;20085;-42
2022/07/23 03:22:14;;;;;;;9.57;4.50;;;;;;;14.89;65.86;93825.50;5072469;28;20020;-42
2022/07/23 03:24:55;;;;;;;6.50;4.00;;;;;;;14.74;66.53;93824.88;5072149;28;20024;-41
2022/07/23 03:27:24;;;;;;;5.07;3.90;;;;;;;14.74;66.56;93827.66;5069741;28;20024;-42
2022/07/23 03:29:51;;;;;;;5.65;4.47;;;;;;;14.84;65.65;93832.00;5072413;28;20045;-40
2022/07/23 03:32:16;;;;;;;7.38;4.60;;;;;;;14.74;65.40;93833.22;5072179;28;20035;-40
2022/07/23 03:34:42;;;;;;;7.10;4.80;;;;;;;14.85;65.52;93827.94;5070806;28;20468;-41
2022/07/23 03:37:07;;;;;;;8.77;5.40;;;;;;;14.90;65.19;93826.94;5072344;28;20024;-40
2022/07/23 03:39:33;;;;;;;8.43;4.88;;;;;;;14.72;65.90;93819.88;5072231;28;20118;-41
2022/07/23 03:41:58;;;;;;;6.03;4.68;;;;;;;14.67;66.35;93828.44;5071817;28;20497;-41
2022/07/23 03:44:24;;;;;;;5.80;4.28;;;;;;;14.80;66.25;93828.91;5071904;28;20024;-40
2022/07/23 03:46:49;;;;;;;6.25;5.07;;;;;;;14.85;65.70;93830.72;5072074;28;20017;-40
2022/07/23 03:49:15;;;;;;;6.70;4.57;;;;;;;14.62;66.28;93824.56;5072192;28;20016;-41
2022/07/23 03:51:40;;;;;;;6.38;4.80;;;;;;;14.63;66.74;93823.28;5069437;28;20477;-40
2022/07/23 03:54:06;;;;;;;4.53;4.13;;;;;;;14.65;67.12;93822.69;5070682;28;20516;-40
2022/07/23 03:56:31;;;;;;;10.10;4.97;;;;;;;14.82;66.91;93823.50;5071814;28;20559;-40
2022/07/23 03:58:57;;;;;;;5.53;4.60;;;;;;;14.89;65.93;93817.16;5071850;28;20073;-41
2022/07/23 04:01:22;;;;;;;7.53;4.93;;;;;;;14.77;65.57;93824.47;5070191;28;20119;-41
2022/07/23 04:03:48;;;;;;;10.73;4.75;;;;;;;14.86;65.17;93823.09;5066138;28;20045;-41
2022/07/23 04:06:13;;;;;;;12.13;4.80;;;;;;;14.76;65.58;93825.03;5066816;28;20107;-41
2022/07/23 04:08:39;;;;;;;9.60;4.88;;;;;;;15.02;64.77;93830.03;5071812;28;20024;-41
2022/07/23 04:11:05;;;;;;;7.38;4.97;;;;;;;15.11;65.57;93823.84;5071245;28;20035;-39
2022/07/23 04:13:32;;;;;;;7.55;5.22;;;;;;;15.09;65.16;93827.16;5071135;28;20017;-39
2022/07/23 04:15:58;;;;;;;8.00;5.15;;;;;;;14.97;65.91;93828.19;5077383;28;20082;-38
2022/07/23 04:18:24;;;;;;;9.95;5.13;;;;;;;14.98;66.79;93822.09;5070130;28;20028;-39
2022/07/23 04:20:51;;;;;;;18.13;5.38;;;;;;;15.18;66.30;93820.97;5070830;28;20040;-38
2022/07/23 04:23:16;;;;;;;5.00;4.50;;;;;;;15.00;67.00;93824.28;5071448;28;20019;-39
2022/07/23 04:25:42;;;;;;;6.00;4.40;;;;;;;15.17;66.82;93821.53;5071672;28;20025;-38
2022/07/23 04:28:08;;;;;;;6.55;5.00;;;;;;;15.07;67.07;93827.00;5065039;28;20017;-39
2022/07/23 04:30:33;;;;;;;6.93;4.68;;;;;;;15.28;66.58;93823.84;5051934;28;20021;-38
2022/07/23 04:32:59;;;;;;;10.02;5.55;;;;;;;15.16;68.03;93825.63;5065835;28;20447;-39
2022/07/23 04:35:24;;;;;;;6.82;5.18;;;;;;;15.32;67.53;93826.97;5071860;28;20506;-38
2022/07/23 04:37:50;;;;;;;5.18;4.55;;;;;;;15.41;67.01;93829.13;5071490;28;20418;-38
2022/07/23 04:40:15;;;;;;;6.95;5.50;;;;;;;15.43;67.51;93818.19;5071584;28;20027;-38
2022/07/23 04:42:41;;;;;;;7.45;5.28;;;;;;;15.54;67.97;93822.50;5071817;28;20017;-38
2022/07/23 04:45:07;;;;;;;8.52;5.45;;;;;;;15.64;66.99;93821.28;5071180;28;20041;-38
2022/07/23 04:47:33;;;;;;;7.75;5.22;;;;;;;15.73;67.48;93817.84;5071406;28;20063;-39
2022/07/23 04:49:58;;;;;;;12.75;5.82;;;;;;;16.02;66.87;93832.00;5071441;28;20055;-38
2022/07/23 04:52:24;;;;;;;5.65;5.07;;;;;;;15.96;67.82;93834.28;5071020;28;20051;-39
2022/07/23 04:54:50;;;;;;;6.88;5.88;;;;;;;16.00;67.69;93823.50;5070573;28;20085;-39
2022/07/23 04:57:15;;;;;;;6.75;5.50;;;;;;;16.14;67.92;93838.53;5070484;28;20024;-39
2022/07/23 04:59:41;;;;;;;8.10;6.25;;;;;;;16.08;68.01;93820.59;5071085;28;20020;-40
2022/07/23 05:02:06;;;;;;;7.40;6.30;;;;;;;16.23;68.23;93828.75;5070923;28;20482;-41
2022/07/23 05:04:32;;;;;;;7.03;5.95;;;;;;;16.46;67.25;93823.59;5070831;28;20041;-40
2022/07/23 05:06:58;;;;;;;9.68;5.63;;;;;;;16.53;68.23;93822.81;5070842;28;20020;-44
2022/07/23 05:09:23;;;;;;;7.85;5.65;;;;;;;16.53;68.90;93829.13;5066000;28;20031;-44
2022/07/23 05:11:49;;;;;;;12.38;5.93;;;;;;;16.60;69.25;93825.50;5051033;28;20028;-41
2022/07/23 05:14:14;;;;;;;8.00;5.60;;;;;;;16.65;69.44;93826.56;5051049;28;20045;-41
2022/07/23 05:16:40;;;;;;;8.00;5.70;;;;;;;16.80;68.60;93820.00;5066909;28;20480;-46
2022/07/23 05:19:05;;;;;;;30.90;6.90;;;;;;;16.98;69.51;93818.63;5070457;28;20024;-44
2022/07/23 05:21:31;;;;;;;12.02;5.93;;;;;;;16.97;70.53;93806.72;5054914;28;20112;-44
2022/07/23 05:23:57;;;;;;;20.88;5.80;;;;;;;17.26;70.05;93817.97;5061646;28;20029;-42
2022/07/23 05:26:22;;;;;;;14.18;6.03;;;;;;;17.28;69.95;93820.91;5053018;28;20025;-42
2022/07/23 05:28:48;;;;;;;6.07;5.47;;;;;;;17.44;68.49;93825.63;5070901;28;20409;-42
2022/07/23 05:31:13;;;;;;;12.63;6.18;;;;;;;17.55;66.80;93829.94;5069944;28;20493;-41
2022/07/23 05:33:39;;;;;;;12.05;5.80;;;;;;;17.66;66.66;93823.78;5070135;28;20016;-41
2022/07/23 05:36:05;;;;;;;10.38;5.65;;;;;;;17.71;67.21;93827.59;5070227;28;20056;-40
2022/07/23 05:38:31;;;;;;;8.40;6.30;;;;;;;17.83;68.56;93834.06;5070608;28;20029;-40
2022/07/23 05:40:57;;;;;;;10.70;6.03;;;;;;;17.81;68.45;93826.28;5070563;28;20131;-40
2022/07/23 05:43:22;;;;;;;16.65;6.35;;;;;;;17.95;68.44;93824.50;5070207;28;20043;-40
2022/07/23 05:45:48;;;;;;;8.60;6.05;;;;;;;18.18;69.82;93827.59;5051693;28;20567;-43
2022/07/23 05:48:13;;;;;;;21.60;6.00;;;;;;;18.29;67.53;93825.53;5069537;28;20532;-41
2022/07/23 05:50:39;;;;;;;25.77;5.90;;;;;;;18.39;66.51;93834.63;5070308;28;20016;-42
2022/07/23 05:53:04;;;;;;;10.25;5.35;;;;;;;18.47;66.21;93835.25;5070156;28;20039;-41
2022/07/23 05:55:31;;;;;;;5.45;4.05;;;;;;;18.57;66.23;93839.50;5070105;28;20090;-41
2022/07/23 05:57:57;;;;;;;8.32;4.80;;;;;;;18.71;65.94;93840.47;5069713;28;20024;-42
2022/07/23 06:00:23;;;;;;;10.45;5.47;;;;;;;18.70;64.44;93818.69;5069913;28;20037;-41
2022/07/23 06:02:49;;;;;;;9.93;5.88;;;;;;;18.99;64.49;93835.38;5067147;28;20027;-42
2022/07/23 06:05:14;;;;;;;8.13;7.10;;;;;;;19.06;64.49;93835.19;5066452;28;20052;-41
2022/07/23 06:07:40;;;;;;;8.23;5.57;;;;;;;19.20;63.67;93836.19;5067974;28;20052;-41
2022/07/23 06:10:06;;;;;;;8.13;5.55;;;;;;;19.37;62.37;93841.56;5068924;28;20042;-41
2022/07/23 06:12:31;;;;;;;5.88;5.28;;;;;;;19.48;60.76;93834.59;5069937;28;20039;-41
2022/07/23 06:14:57;;;;;;;8.20;4.93;;;;;;;19.57;60.40;93837.34;5069671;28;20029;-41
2022/07/23 06:17:22;;;;;;;13.98;5.78;;;;;;;19.75;60.71;93842.69;5069342;28;20032;-42
2022/07/23 06:19:48;;;;;;;7.32;4.88;;;;;;;19.94;60.87;93837.69;5069407;28;20028;-42
2022/07/23 06:22:13;;;;;;;7.75;5.45;;;;;;;20.06;61.11;93834.91;5070044;28;20051;-43
2022/07/23 06:24:39;;;;;;;8.15;4.85;;;;;;;20.18;60.65;93832.91;5069388;28;20024;-42
2022/07/23 06:27:04;;;;;;;7.15;5.00;;;;;;;20.22;59.71;93825.53;5069330;28;20078;-42
2022/07/23 06:29:30;;;;;;;10.00;5.38;;;;;;;20.40;59.70;93817.53;5069320;28;20528;-42
2022/07/23 06:31:55;;;;;;;8.25;5.15;;;;;;;20.53;59.10;93819.75;5069935;28;20038;-43
2022/07/23 06:34:21;;;;;;;17.38;5.10;;;;;;;20.63;57.78;93822.47;5069566;28;20056;-42
2022/07/23 06:36:46;;;;;;;6.28;4.80;;;;;;;20.97;58.07;93819.72;5069849;28;20036;-42
2022/07/23 06:39:12;;;;;;;4.80;4.05;;;;;;;21.00;56.73;93829.00;5069220;28;20066;-44
2022/07/23 06:41:37;;;;;;;8.23;4.20;;;;;;;21.06;55.56;93818.91;5069207;28;20028;-44
2022/07/23 06:44:03;;;;;;;7.25;4.60;;;;;;;21.22;56.11;93824.78;5069195;28;20032;-43
2022/07/23 06:46:29;;;;;;;7.30;3.95;;;;;;;21.32;56.06;93822.56;5069730;28;20127;-43
2022/07/23 06:48:54;;;;;;;8.80;4.45;;;;;;;21.51;55.49;93819.50;5069716;28;20450;-43
2022/07/23 06:51:19;;;;;;;4.93;4.38;;;;;;;21.69;55.71;93814.22;5069661;28;20099;-43
2022/07/23 06:53:45;;;;;;;9.50;4.43;;;;;;;21.83;55.69;93817.88;5069848;28;20413;-45
2022/07/23 06:56:10;;;;;;;11.73;4.38;;;;;;;22.05;54.87;93821.25;5069231;28;20491;-42
2022/07/23 06:58:36;;;;;;;7.07;4.53;;;;;;;22.21;54.10;93816.56;5068365;28;20113;-44
2022/07/23 07:01:01;;;;;;;5.90;4.20;;;;;;;22.36;52.87;93816.75;5066598;28;20024;-43
2022/07/23 07:03:27;;;;;;;6.47;4.55;;;;;;;22.46;53.04;93817.31;5067216;28;20020;-45
2022/07/23 07:05:53;;;;;;;6.38;4.45;;;;;;;22.59;51.63;93810.28;5068328;28;20747;-46
2022/07/23 07:08:18;;;;;;;9.45;4.40;;;;;;;22.79;51.78;93819.09;5067966;28;20021;-45
2022/07/23 07:10:44;;;;;;;6.55;4.43;;;;;;;22.89;50.67;93820.38;5071171;28;20025;-46
2022/07/23 07:13:09;;;;;;;4.85;4.38;;;;;;;23.08;51.22;93817.22;5070070;28;20028;-45
2022/07/23 07:15:35;;;;;;;9.93;4.32;;;;;;;23.17;49.10;93809.94;5071499;28;20020;-45
2022/07/23 07:18:00;;;;;;;5.32;4.38;;;;;;;23.15;50.33;93807.00;5071151;28;20025;-45
2022/07/23 07:20:26;;;;;;;7.30;4.07;;;;;;;23.38;48.88;93815.28;5071809;28;20375;-44
2022/07/23 07:22:51;;;;;;;7.60;5.03;;;;;;;23.65;49.32;93806.13;5078179;28;20427;-42
2022/07/23 07:25:17;;;;;;;5.78;4.20;;;;;;;23.85;48.40;93802.22;5072142;28;20021;-43
2022/07/23 07:27:43;;;;;;;5.10;4.25;;;;;;;24.14;47.74;93809.31;5074029;28;20162;-46
2022/07/23 07:30:11;;;;;;;6.72;4.80;;;;;;;24.38;47.63;93802.03;5073799;28;20027;-44
2022/07/23 07:32:37;;;;;;;7.73;3.77;;;;;;;24.69;47.17;93800.03;5055615;28;20031;-47
2022/07/23 07:35:05;;;;;;;7.68;3.90;;;;;;;25.30;45.56;93806.41;5075594;28;20028;-45
2022/07/23 07:37:30;;;;;;;6.47;4.70;;;;;;;26.22;43.31;93803.38;5053416;28;20032;-44
2022/07/23 07:39:56;;;;;;;6.15;4.22;;;;;;;27.74;40.75;93802.25;5072648;28;20024;-45
2022/07/23 07:42:21;;;;;;;6.95;4.30;;;;;;;28.66;37.33;93793.34;5074736;28;20528;-42
2022/07/23 07:44:47;;;;;;;13.57;6.38;;;;;;;28.89;39.20;93794.81;5068694;28;20013;-41
2022/07/23 07:47:15;;;;;;;8.10;7.07;;;;;;;29.16;36.91;93800.66;5070714;28;20028;-42
2022/07/23 07:49:40;;;;;;;5.97;4.75;;;;;;;29.52;36.22;93789.59;5073292;28;20025;-44
2022/07/23 07:52:06;;;;;;;8.68;4.32;;;;;;;30.01;35.13;93785.31;5073347;28;20033;-41
2022/07/23 07:54:32;;;;;;;7.18;4.38;;;;;;;30.25;35.88;93780.97;5068066;28;20410;-44
2022/07/23 07:56:57;;;;;;;4.57;3.45;;;;;;;30.41;35.17;93792.06;5069209;28;20073;-44
2022/07/23 07:59:23;;;;;;;5.65;4.05;;;;;;;30.87;35.23;93792.50;5066502;28;20448;-41
2022/07/23 08:01:48;;;;;;;8.02;4.57;;;;;;;31.03;33.77;93795.75;5063915;28;20044;-43
2022/07/23 08:04:14;;;;;;;5.38;4.80;;;;;;;31.22;32.62;93801.19;5062005;28;20064;-41
2022/07/23 08:06:39;;;;;;;5.70;4.03;;;;;;;31.78;32.81;93784.56;5061828;28;20016;-42
2022/07/23 08:09:05;;;;;;;7.25;4.80;;;;;;;32.29;32.30;93785.56;5063198;28;20129;-42
2022/07/23 08:11:30;;;;;;;9.70;4.50;;;;;;;32.75;31.24;93784.25;5063572;28;20036;-44
2022/07/23 08:13:56;;;;;;;6.13;4.53;;;;;;;32.92;29.62;93785.97;5065689;28;20386;-44
2022/07/23 08:16:21;;;;;;;7.70;3.88;;;;;;;33.03;30.36;93781.13;5065860;28;20028;-38
2022/07/23 08:18:47;;;;;;;9.38;3.95;;;;;;;32.98;29.06;93776.03;5065491;28;20021;-42
2022/07/23 08:21:12;;;;;;;5.32;4.07;;;;;;;33.52;29.56;93785.47;5061536;28;20100;-39
2022/07/23 08:23:38;;;;;;;5.70;3.78;;;;;;;34.12;30.13;93780.50;5062408;28;20050;-43
2022/07/23 08:26:03;;;;;;;8.20;4.13;;;;;;;34.39;26.56;93772.91;5065122;28;20026;-45
2022/07/23 08:28:32;;;;;;;5.70;3.80;;;;;;;35.01;26.75;93787.84;5062103;28;20051;-44
2022/07/23 08:30:58;;;;;;;8.05;3.72;;;;;;;35.37;26.22;93778.72;5066740;28;20612;-43
2022/07/23 08:33:23;;;;;;;4.30;3.90;;;;;;;35.97;25.73;93783.41;5067666;28;20089;-45
2022/07/23 08:35:50;;;;;;;6.53;3.90;;;;;;;36.37;24.33;93775.63;5065285;28;20028;-44
2022/07/23 08:38:18;;;;;;;11.57;3.58;;;;;;;37.24;22.99;93781.47;5067273;28;20016;-47
2022/07/23 08:40:51;;;;;;;7.07;3.70;;;;;;;37.27;24.29;93785.78;5063150;28;20052;-44
2022/07/23 08:43:23;;;;;;;5.07;3.65;;;;;;;37.74;22.19;93783.56;5061156;28;20041;-44
2022/07/23 08:45:51;;;;;;;9.20;3.97;;;;;;;37.74;23.52;93783.56;5062721;28;20780;-42
2022/07/23 08:48:22;;;;;;;3.60;3.28;;;;;;;37.73;22.57;93779.94;5065236;28;20489;-45
2022/07/23 08:50:49;;;;;;;6.47;3.58;;;;;;;38.37;22.15;93786.94;5066445;28;20111;-42
2022/07/23 08:53:16;;;;;;;6.25;3.72;;;;;;;38.90;22.52;93782.28;5046122;28;20502;-46
2022/07/23 08:55:46;;;;;;;12.27;4.05;;;;;;;39.37;21.74;93776.88;5065623;28;20028;-43
2022/07/23 08:58:12;;;;;;;5.22;4.00;;;;;;;39.87;20.79;93785.00;5067204;28;20078;-42
2022/07/23 09:00:37;;;;;;;6.00;3.70;;;;;;;40.62;20.84;93792.81;5063700;28;20474;-43
2022/07/23 09:03:03;;;;;;;5.47;3.50;;;;;;;40.45;20.31;93774.94;5061335;28;20028;-45
2022/07/23 09:05:29;;;;;;;3.80;3.35;;;;;;;40.45;20.07;93766.25;5065968;28;20093;-46
2022/07/23 09:08:14;;;;;;;4.28;3.50;;;;;;;40.94;19.82;93782.94;5062817;28;20417;-43
2022/07/23 09:10:55;;;;;;;4.82;3.70;;;;;;;41.16;18.83;93780.41;5063006;28;20028;-43
2022/07/23 09:13:40;;;;;;;6.55;3.17;;;;;;;41.25;18.78;93784.63;5063173;28;20543;-45
2022/07/23 09:16:26;;;;;;;5.07;3.70;;;;;;;41.27;18.82;93773.00;5058748;28;20043;-43
2022/07/23 09:18:56;;;;;;;10.18;4.07;;;;;;;41.57;18.71;93765.94;5064799;28;20061;-43
2022/07/23 09:21:28;;;;;;;5.82;3.40;;;;;;;41.72;18.51;93767.13;5062773;28;20035;-45
2022/07/23 09:24:03;;;;;;;5.50;3.70;;;;;;;41.47;16.86;93772.66;5063366;28;20107;-43
2022/07/23 09:26:42;;;;;;;5.00;3.60;;;;;;;42.10;18.01;93769.31;5063418;28;20093;-44
2022/07/23 09:29:20;;;;;;;3.25;2.90;;;;;;;42.53;17.07;93760.44;5061067;28;20032;-45
2022/07/23 09:31:56;;;;;;;4.43;3.13;;;;;;;42.07;18.66;93764.28;5062512;28;20425;-46
2022/07/23 09:34:35;;;;;;;6.43;3.40;;;;;;;42.46;17.79;93755.50;5061355;28;20557;-43
2022/07/23 09:37:17;;;;;;;8.30;3.63;;;;;;;42.99;16.76;93762.28;5062852;28;20028;-45
2022/07/23 09:39:45;;;;;;;9.48;3.53;;;;;;;42.84;17.47;93746.63;5065644;28;20024;-43
2022/07/23 09:42:17;;;;;;;4.95;3.28;;;;;;;43.10;17.13;93756.97;5065232;28;20025;-46
2022/07/23 09:44:44;;;;;;;5.35;3.40;;;;;;;43.23;16.37;93754.47;5061788;28;20090;-44
2022/07/23 09:47:10;;;;;;;7.63;3.63;;;;;;;43.04;16.89;93756.38;5065909;28;20040;-45
2022/07/23 09:49:35;;;;;;;6.38;3.30;;;;;;;42.55;17.48;93754.59;5067305;28;20106;-43
2022/07/23 09:52:02;;;;;;;4.68;3.30;;;;;;;42.30;16.43;93750.75;5067215;28;20668;-44
2022/07/23 09:54:31;;;;;;;5.70;3.63;;;;;;;42.28;17.57;93732.69;5066376;28;20485;-44
2022/07/23 09:56:58;;;;;;;6.10;3.67;;;;;;;42.13;16.19;93735.16;5066538;28;20099;-43
2022/07/23 09:59:27;;;;;;;4.95;3.35;;;;;;;41.66;16.25;93735.34;5065956;28;20757;-42
2022/07/23 10:01:57;;;;;;;5.78;4.10;;;;;;;41.03;16.47;93735.72;5066741;28;20135;-45
2022/07/23 10:04:23;;;;;;;4.72;3.90;;;;;;;40.71;17.42;93733.31;5067675;28;20669;-43
2022/07/23 10:06:53;;;;;;;10.43;4.25;;;;;;;39.66;18.16;93726.00;5065760;28;20044;-45
2022/07/23 10:09:32;;;;;;;7.28;4.18;;;;;;;38.95;19.18;93714.41;5062967;28;20024;-41
2022/07/23 10:14:44;;;;;;;6.05;3.97;;;;;;;39.15;19.35;93722.91;5066394;28;20031;-46
2022/07/23 10:17:10;;;;;;;9.00;3.95;;;;;;;39.15;18.18;93713.53;5067280;28;20009;-42
2022/07/23 10:19:36;;;;;;;5.57;4.05;;;;;;;38.76;18.82;93715.28;5069078;28;20028;-45
2022/07/23 10:22:03;;;;;;;7.70;5.68;;;;;;;39.32;19.46;93720.56;5069313;28;20102;-43
2022/07/23 10:24:51;;;;;;;49.35;7.40;;;;;;;39.72;19.48;93714.34;5035033;28;20039;-49
2022/07/23 10:27:35;;;;;;;8.82;3.88;;;;;;;39.96;18.39;93711.16;5067827;28;20077;-46
2022/07/23 10:30:15;;;;;;;7.13;4.00;;;;;;;40.04;19.48;93716.16;5066831;28;20567;-46
2022/07/23 10:33:22;;;;;;;9.48;4.38;;;;;;;39.99;19.95;93712.63;5065814;28;20024;-43
2022/07/23 10:35:59;;;;;;;6.78;4.10;;;;;;;39.81;17.75;93709.91;5068670;28;20029;-42
2022/07/23 10:38:30;;;;;;;7.50;4.47;;;;;;;39.57;17.49;93692.84;5069048;28;20493;-43
2022/07/23 10:40:59;;;;;;;9.65;4.00;;;;;;;39.35;16.95;93701.75;5065734;28;20024;-43
2022/07/23 10:43:25;;;;;;;8.23;4.32;;;;;;;39.62;17.98;93705.81;5066362;28;20405;-46
2022/07/23 10:45:51;;;;;;;5.63;3.55;;;;;;;39.76;14.02;93704.94;5072208;28;20063;-48
2022/07/23 10:48:21;;;;;;;6.80;3.10;;;;;;;39.38;15.96;93706.06;5054997;28;20493;-44
2022/07/23 10:51:07;;;;;;;5.50;3.55;;;;;;;39.23;13.80;93696.09;5068430;28;20039;-46
2022/07/23 10:53:51;;;;;;;15.63;4.45;;;;;;;39.18;15.72;93688.94;5067620;28;20028;-48
2022/07/23 10:57:05;;;;;;;7.57;3.92;;;;;;;39.41;15.37;93684.34;5071042;28;20036;-45
2022/07/23 10:59:31;;;;;;;15.32;4.60;;;;;;;39.55;15.39;93689.97;5066050;28;20119;-50
2022/07/23 11:02:23;;;;;;;13.82;5.28;;;;;;;39.44;15.71;93679.97;5067662;28;20153;-48
2022/07/23 11:04:50;;;;;;;12.15;4.60;;;;;;;39.30;14.72;93677.25;5060626;28;20052;-46
2022/07/23 11:07:16;;;;;;;9.38;4.20;;;;;;;39.29;15.88;93673.63;5069882;28;20050;-45
2022/07/23 11:09:43;;;;;;;9.35;4.13;;;;;;;39.32;16.54;93665.66;5052425;28;20060;-46
2022/07/23 11:12:21;;;;;;;6.00;4.00;;;;;;;39.53;15.52;93669.75;5069997;28;20032;-48
2022/07/23 11:15:08;;;;;;;8.57;4.20;;;;;;;39.52;15.03;93671.22;5069633;28;20044;-45
2022/07/23 11:17:42;;;;;;;9.20;3.87;;;;;;;39.36;16.25;93668.50;5067869;28;20182;-46
2022/07/23 11:20:17;;;;;;;10.15;4.80;;;;;;;39.38;18.50;93677.16;5067512;28;20569;-46
2022/07/23 11:22:42;;;;;;;8.32;3.80;;;;;;;39.13;14.95;93676.00;5070733;28;20541;-45
2022/07/23 11:25:09;;;;;;;12.70;3.70;;;;;;;38.59;15.00;93669.22;5071826;28;20120;-44
2022/07/23 11:27:38;;;;;;;10.13;4.00;;;;;;;38.55;16.37;93672.13;5055267;28;20029;-45
2022/07/23 11:30:04;;;;;;;10.80;3.72;;;;;;;38.45;14.81;93660.66;5071896;28;20505;-44
2022/07/23 11:32:33;;;;;;;12.20;4.22;;;;;;;38.44;15.67;93659.22;5063750;28;20025;-45
2022/07/23 11:34:59;;;;;;;8.77;4.32;;;;;;;38.48;13.74;93655.59;5063744;28;20107;-43